map of TNW home
TNW - Facility
Location
City:  Tena, Napo, Ecuador
Name:Jumandy
ICAO:SEJD
IATA:TNW

Details
Type:Facility
Latitude:104'S (-1.060)
Longitude:7735'W (-77.581)
Variation:4.10W (WMM2015 magnetic declination)
-0.16 annual change

Weather
METAR:SEJD 162300Z 11003KT 9999 FEW016 BKN100 25/24 Q1008 RMK A2979

Related Locations
Nearby:
Farthest:SEQ: 12431 mi / 20006 km
Sungai Pakning Bengkalis, RI, ID

Find:

   beyond  
but within

Other Information
Maps:
NOTAMs:
Links:
Sources:

  
  • flag of Ecuador
  • flag of Napo
  

Sectional Chart

Flight Planning
at skyvector.com

Satellite Image

Google Maps Satellite view

 

Copyright © 2004-2018 Karl L. Swartz. All rights reserved.
The Great Circle Mapper name and logo are trademarks of the Great Circle Mapper.
All other trademarks mentioned herein belong to their respective owners.
Please see credits for attibutions and further copyright information.

  Follow gcmap on Facebook Follow gcmap on Twitter Follow gcmap on Google+ GCmap on LinkedIn

hCard Microformat

Geo Microformat